createdAt,value
2018-03-20T00:00:48.954Z,88.95
2018-03-20T00:03:16.513Z,89.12
2018-03-20T00:05:44.073Z,89.16
2018-03-20T00:08:11.644Z,89.49
2018-03-20T00:10:39.265Z,88.62
2018-03-20T00:13:06.910Z,89.22
2018-03-20T00:15:34.657Z,88.66
2018-03-20T00:18:02.473Z,88.34
2018-03-20T00:20:30.042Z,88.92
2018-03-20T00:22:57.670Z,88.68
2018-03-20T00:25:25.221Z,89.17
2018-03-20T00:27:53.045Z,89.14
2018-03-20T00:30:20.950Z,88.58
2018-03-20T00:32:48.581Z,87.95
2018-03-20T00:35:16.400Z,88.60
2018-03-20T00:37:44.110Z,89.60
2018-03-20T00:40:11.731Z,89.33
2018-03-20T00:42:39.431Z,89.29
2018-03-20T00:45:06.991Z,89.17
2018-03-20T00:47:34.554Z,88.05
2018-03-20T00:50:02.304Z,87.79
2018-03-20T00:52:29.890Z,88.16
2018-03-20T00:54:57.452Z,87.98
2018-03-20T00:57:25.263Z,88.11
2018-03-20T00:59:52.814Z,87.57
2018-03-20T01:02:20.699Z,87.54
2018-03-20T01:04:48.251Z,87.62
2018-03-20T01:07:15.810Z,87.21
2018-03-20T01:09:43.463Z,86.90
2018-03-20T01:12:11.083Z,86.12
2018-03-20T01:14:38.888Z,86.01
2018-03-20T01:17:06.445Z,86.30
2018-03-20T01:19:34.005Z,86.69
2018-03-20T01:22:01.743Z,86.54
2018-03-20T01:24:29.357Z,86.06
2018-03-20T01:26:56.969Z,86.30
2018-03-20T01:29:24.525Z,86.11
2018-03-20T01:31:52.279Z,86.94
2018-03-20T01:34:19.826Z,87.25
2018-03-20T01:36:47.634Z,86.78
2018-03-20T01:39:15.203Z,86.56
2018-03-20T01:41:42.778Z,86.41
2018-03-20T01:44:10.492Z,85.93
2018-03-20T01:46:38.117Z,85.69
2018-03-20T01:49:05.707Z,86.70
2018-03-20T01:51:33.270Z,87.31
2018-03-20T01:54:00.838Z,87.39
2018-03-20T01:56:28.394Z,88.05
2018-03-20T01:58:56.210Z,87.65
2018-03-20T02:01:23.765Z,87.76
2018-03-20T02:03:51.326Z,87.38
2018-03-20T02:06:19.030Z,87.88
2018-03-20T02:08:46.649Z,87.36
2018-03-20T02:11:14.202Z,86.65
2018-03-20T02:13:41.774Z,86.70
2018-03-20T02:16:09.339Z,86.28
2018-03-20T02:18:36.902Z,86.70
2018-03-20T02:21:04.672Z,87.25
2018-03-20T02:23:32.221Z,86.07
2018-03-20T02:25:59.786Z,85.43
2018-03-20T02:28:27.343Z,85.46
2018-03-20T02:30:54.966Z,85.33
2018-03-20T02:33:22.526Z,86.10
2018-03-20T02:35:50.089Z,85.40
2018-03-20T02:38:17.663Z,85.66
2018-03-20T02:40:45.290Z,85.44
2018-03-20T02:43:12.863Z,86.24
2018-03-20T02:45:40.649Z,86.05
2018-03-20T02:48:08.263Z,86.23
2018-03-20T02:50:35.833Z,86.26
2018-03-20T02:53:03.411Z,85.85
2018-03-20T02:55:30.986Z,85.48
2018-03-20T02:57:58.715Z,84.85
2018-03-20T03:00:26.458Z,85.42
2018-03-20T03:02:54.045Z,86.07
2018-03-20T03:05:21.889Z,86.54
2018-03-20T03:07:49.502Z,86.16
2018-03-20T03:10:17.229Z,86.69
2018-03-20T03:12:45.047Z,85.83
2018-03-20T03:15:12.678Z,84.54
2018-03-20T03:17:40.255Z,85.31
2018-03-20T03:20:08.002Z,85.01
2018-03-20T03:22:35.612Z,85.50
2018-03-20T03:25:03.234Z,86.14
2018-03-20T03:27:31.007Z,85.66
2018-03-20T03:29:58.566Z,85.63
2018-03-20T03:32:26.142Z,86.27
2018-03-20T03:34:53.720Z,85.55
2018-03-20T03:37:21.275Z,83.83
2018-03-20T03:39:48.857Z,83.79
2018-03-20T03:42:16.409Z,84.45
2018-03-20T03:44:43.984Z,84.71
2018-03-20T03:47:11.799Z,84.93
2018-03-20T03:49:39.616Z,84.70
2018-03-20T03:52:07.436Z,84.04
2018-03-20T03:54:35.254Z,84.75
2018-03-20T03:57:02.833Z,84.66
2018-03-20T03:59:30.589Z,84.77
2018-03-20T04:01:58.150Z,84.46
2018-03-20T04:04:25.825Z,84.77
2018-03-20T04:06:53.398Z,84.74
2018-03-20T04:09:21.162Z,85.13
2018-03-20T04:11:48.807Z,85.45
2018-03-20T04:14:16.370Z,84.95
2018-03-20T04:16:44.217Z,84.88
2018-03-20T04:19:11.786Z,85.57
2018-03-20T04:21:39.346Z,84.48
2018-03-20T04:24:06.919Z,85.21
2018-03-20T04:26:34.474Z,85.13
2018-03-20T04:29:02.183Z,84.65
2018-03-20T04:31:29.738Z,85.22
2018-03-20T04:33:57.367Z,85.21
2018-03-20T04:36:25.160Z,84.61
2018-03-20T04:38:52.977Z,85.20
2018-03-20T04:41:20.573Z,84.87
2018-03-20T04:43:48.315Z,84.55
2018-03-20T04:46:15.882Z,83.79
2018-03-20T04:48:43.438Z,84.47
2018-03-20T04:51:11.038Z,84.67
2018-03-20T04:53:38.618Z,83.92
2018-03-20T04:56:06.198Z,83.09
2018-03-20T04:58:34.023Z,84.19
2018-03-20T05:01:01.593Z,85.51
2018-03-20T05:03:29.168Z,85.72
2018-03-20T05:05:56.731Z,84.65
2018-03-20T05:08:24.310Z,83.27
2018-03-20T05:10:51.897Z,84.37
2018-03-20T05:13:19.534Z,85.23
2018-03-20T05:15:47.147Z,84.44
2018-03-20T05:18:14.964Z,84.36
2018-03-20T05:20:48.064Z,83.99
2018-03-20T05:26:20.358Z,83.89
2018-03-20T05:28:47.961Z,84.29
2018-03-20T05:31:15.796Z,84.55
2018-03-20T05:33:43.734Z,84.99
2018-03-20T05:36:11.349Z,84.05
2018-03-20T05:38:39.158Z,83.43
2018-03-20T05:41:06.821Z,83.11
2018-03-20T05:43:34.414Z,82.80
2018-03-20T05:46:02.215Z,82.50
2018-03-20T05:48:30.263Z,81.68
2018-03-20T05:51:03.413Z,81.98
2018-03-20T05:53:30.999Z,82.25
2018-03-20T05:55:58.603Z,82.37
2018-03-20T05:58:26.214Z,82.24
2018-03-20T06:00:53.810Z,82.00
2018-03-20T06:03:21.537Z,81.86
2018-03-20T06:05:49.098Z,82.09
2018-03-20T06:08:16.722Z,81.74
2018-03-20T06:10:44.301Z,81.74
2018-03-20T06:13:11.862Z,81.30
2018-03-20T06:15:39.532Z,79.99
2018-03-20T06:18:07.086Z,81.00
2018-03-20T06:20:34.886Z,80.59
2018-03-20T06:23:02.445Z,80.41
2018-03-20T06:25:30.071Z,80.25
2018-03-20T06:27:57.690Z,81.14
2018-03-20T06:30:25.272Z,79.38
2018-03-20T06:32:53.074Z,80.14
2018-03-20T06:35:20.717Z,79.63
2018-03-20T06:37:48.292Z,79.54
2018-03-20T06:40:16.028Z,80.43
2018-03-20T06:42:43.654Z,79.61
2018-03-20T06:45:11.215Z,80.06
2018-03-20T06:47:38.951Z,80.74
2018-03-20T06:50:06.666Z,79.78
2018-03-20T06:52:34.308Z,79.52
2018-03-20T06:55:01.890Z,79.56
2018-03-20T06:57:29.545Z,79.71
2018-03-20T06:59:57.166Z,80.45
2018-03-20T07:02:24.727Z,80.84
2018-03-20T07:04:52.289Z,80.62
2018-03-20T07:07:19.860Z,80.62
2018-03-20T07:09:47.643Z,80.76
2018-03-20T07:12:15.252Z,80.10
2018-03-20T07:14:42.828Z,80.33
2018-03-20T07:17:10.399Z,79.65
2018-03-20T07:19:38.007Z,78.82
2018-03-20T07:22:05.640Z,79.53
2018-03-20T07:24:33.227Z,78.14
2018-03-20T07:27:00.958Z,78.37
2018-03-20T07:29:28.773Z,79.24
2018-03-20T07:31:56.505Z,78.97
2018-03-20T07:34:24.114Z,79.74
2018-03-20T07:36:51.841Z,78.50
2018-03-20T07:39:19.474Z,79.65
2018-03-20T07:41:47.278Z,79.37
2018-03-20T07:44:14.910Z,80.10
2018-03-20T07:46:42.628Z,80.23
2018-03-20T07:49:10.222Z,79.83
2018-03-20T07:51:37.794Z,78.73
2018-03-20T07:54:05.534Z,78.97
2018-03-20T07:56:33.388Z,78.75
2018-03-20T07:59:00.957Z,76.42
2018-03-20T08:01:28.685Z,76.79
2018-03-20T08:03:56.454Z,75.75
2018-03-20T08:06:24.010Z,77.04
2018-03-20T08:08:51.578Z,75.99
2018-03-20T08:11:19.397Z,74.67
2018-03-20T08:13:47.217Z,73.69
2018-03-20T08:16:14.780Z,74.03
2018-03-20T08:18:42.346Z,74.56
2018-03-20T08:21:09.951Z,75.21
2018-03-20T08:23:37.505Z,73.84
2018-03-20T08:26:05.083Z,74.45
2018-03-20T08:28:32.650Z,73.46
2018-03-20T08:31:00.222Z,72.17
2018-03-20T08:33:27.955Z,72.80
2018-03-20T08:35:55.567Z,71.00
2018-03-20T08:38:23.123Z,70.45
2018-03-20T08:40:50.908Z,70.00
2018-03-20T08:43:18.476Z,69.18
2018-03-20T08:45:46.245Z,68.72
2018-03-20T08:48:14.079Z,69.10
2018-03-20T08:50:41.715Z,69.55
2018-03-20T08:53:09.374Z,66.49
2018-03-20T08:55:37.055Z,66.18
2018-03-20T08:58:04.665Z,64.68
2018-03-20T09:00:32.304Z,66.09
2018-03-20T09:02:59.870Z,67.56
2018-03-20T09:05:27.548Z,63.74
2018-03-20T09:07:55.106Z,62.46
2018-03-20T09:10:23.731Z,62.08
2018-03-20T09:12:51.289Z,62.14
2018-03-20T09:15:18.858Z,63.48
2018-03-20T09:17:46.684Z,64.44
2018-03-20T09:20:14.503Z,66.39
2018-03-20T09:22:42.082Z,68.62
2018-03-20T09:25:10.129Z,67.34
2018-03-20T09:27:37.967Z,65.34
2018-03-20T09:30:05.575Z,64.13
2018-03-20T09:32:33.380Z,61.42
2018-03-20T09:35:01.072Z,61.42
2018-03-20T09:37:28.665Z,61.90
2018-03-20T09:39:56.388Z,62.33
2018-03-20T09:42:24.090Z,62.61
2018-03-20T09:44:51.768Z,64.31
2018-03-20T09:47:19.475Z,63.49
2018-03-20T09:49:47.192Z,63.26
2018-03-20T09:52:14.823Z,64.51
2018-03-20T09:54:42.458Z,64.66
2018-03-20T09:57:10.018Z,67.06
2018-03-20T09:59:37.578Z,68.18
2018-03-20T10:02:05.396Z,67.46
2018-03-20T10:04:32.974Z,67.91
2018-03-20T10:07:00.542Z,68.78
2018-03-20T10:09:28.098Z,68.27
2018-03-20T10:11:55.714Z,68.68
2018-03-20T10:14:23.279Z,67.58
2018-03-20T10:16:51.018Z,65.24
2018-03-20T10:19:18.811Z,65.48
2018-03-20T10:21:46.374Z,65.25
2018-03-20T10:24:13.950Z,65.88
2018-03-20T10:26:41.518Z,64.17
2018-03-20T10:29:09.154Z,64.37
2018-03-20T10:31:36.819Z,64.65
2018-03-20T10:34:04.382Z,63.00
2018-03-20T10:36:32.051Z,62.71
2018-03-20T10:38:59.690Z,62.29
2018-03-20T10:41:27.499Z,59.97
2018-03-20T10:43:55.058Z,59.19
2018-03-20T10:46:22.831Z,59.19
2018-03-20T10:48:50.390Z,58.21
2018-03-20T10:51:17.966Z,57.13
2018-03-20T10:53:45.530Z,59.10
2018-03-20T10:56:13.088Z,60.57
2018-03-20T10:58:40.663Z,61.97
2018-03-20T11:01:08.262Z,60.46
2018-03-20T11:03:35.827Z,59.32
2018-03-20T11:06:03.404Z,59.18
2018-03-20T11:08:31.082Z,60.75
2018-03-20T11:10:58.775Z,62.05
2018-03-20T11:13:26.498Z,61.23
2018-03-20T11:15:54.207Z,59.67
2018-03-20T11:18:21.842Z,58.90
2018-03-20T11:20:49.585Z,56.33
2018-03-20T11:23:17.141Z,55.55
2018-03-20T11:25:44.768Z,54.93
2018-03-20T11:28:12.537Z,55.27
2018-03-20T11:30:40.094Z,53.69
2018-03-20T11:33:07.662Z,53.90
2018-03-20T11:35:35.523Z,54.58
2018-03-20T11:38:03.101Z,54.25
2018-03-20T11:40:30.842Z,54.11
2018-03-20T11:42:58.645Z,53.70
2018-03-20T11:45:26.213Z,50.50
2018-03-20T11:47:54.044Z,47.40
2018-03-20T11:50:21.760Z,48.43
2018-03-20T11:52:49.347Z,46.13
2018-03-20T11:55:17.135Z,47.12
2018-03-20T11:57:44.956Z,47.18
2018-03-20T12:00:12.773Z,44.42
2018-03-20T12:02:40.821Z,43.38
2018-03-20T12:05:08.390Z,43.16
2018-03-20T12:07:36.015Z,42.91
2018-03-20T12:10:03.817Z,43.95
2018-03-20T12:12:31.669Z,45.69
2018-03-20T12:14:59.294Z,46.00
2018-03-20T12:17:26.893Z,44.91
2018-03-20T12:19:54.733Z,47.09
2018-03-20T12:22:22.323Z,45.76
2018-03-20T12:24:49.894Z,45.24
2018-03-20T12:27:17.474Z,40.73
2018-03-20T12:29:45.025Z,42.00
2018-03-20T12:32:12.808Z,41.19
2018-03-20T12:34:40.384Z,41.27
2018-03-20T12:37:07.947Z,41.86
2018-03-20T12:39:35.762Z,43.63
2018-03-20T12:42:03.373Z,42.12
2018-03-20T12:44:31.090Z,41.53
2018-03-20T12:46:58.655Z,40.72
2018-03-20T12:49:26.236Z,39.82
2018-03-20T12:51:53.844Z,38.46
2018-03-20T12:54:21.562Z,37.51
2018-03-20T12:56:49.388Z,36.62
2018-03-20T12:59:16.960Z,36.88
2018-03-20T13:01:44.535Z,37.35
2018-03-20T13:04:12.098Z,39.93
2018-03-20T13:06:39.860Z,37.26
2018-03-20T13:09:07.662Z,36.51
2018-03-20T13:11:35.397Z,36.88
2018-03-20T13:14:03.094Z,37.99
2018-03-20T13:16:30.714Z,38.00
2018-03-20T13:18:58.342Z,38.23
2018-03-20T13:21:26.169Z,37.95
2018-03-20T13:23:53.763Z,37.96
2018-03-20T13:26:21.396Z,38.98
2018-03-20T13:28:49.225Z,41.36
2018-03-20T13:31:17.042Z,42.80
2018-03-20T13:33:44.622Z,45.94
2018-03-20T13:36:12.187Z,46.88
2018-03-20T13:38:39.814Z,45.06
2018-03-20T13:41:07.615Z,44.61
2018-03-20T13:43:35.239Z,43.03
2018-03-20T13:46:03.050Z,41.90
2018-03-20T13:48:30.622Z,41.53
2018-03-20T13:50:58.680Z,42.70
2018-03-20T13:53:28.305Z,40.54
2018-03-20T13:55:56.131Z,39.54
2018-03-20T13:58:23.949Z,40.53
2018-03-20T14:00:51.583Z,41.51
2018-03-20T14:03:19.174Z,42.70
2018-03-20T14:05:46.745Z,43.20
2018-03-20T14:08:14.348Z,43.35
2018-03-20T14:10:42.018Z,44.33
2018-03-20T14:13:09.599Z,46.95
2018-03-20T14:15:37.174Z,49.05
2018-03-20T14:18:04.789Z,52.77
2018-03-20T14:20:32.359Z,53.58
2018-03-20T14:23:00.128Z,51.79
2018-03-20T14:25:27.722Z,48.18
2018-03-20T14:27:55.513Z,46.50
2018-03-20T14:30:23.324Z,43.29
2018-03-20T14:32:51.042Z,42.83
2018-03-20T14:35:18.618Z,41.45
2018-03-20T14:37:46.378Z,43.68
2018-03-20T14:40:14.197Z,44.84
2018-03-20T14:42:41.782Z,46.15
2018-03-20T14:45:09.534Z,44.39
2018-03-20T14:47:37.119Z,45.43
2018-03-20T14:50:04.764Z,43.73
2018-03-20T14:52:32.354Z,41.57
2018-03-20T14:54:59.979Z,40.87
2018-03-20T14:57:27.724Z,40.76
2018-03-20T14:59:55.432Z,40.27
2018-03-20T15:02:23.020Z,41.41
2018-03-20T15:04:50.757Z,40.95
2018-03-20T15:07:18.356Z,40.02
2018-03-20T15:09:45.941Z,39.60
2018-03-20T15:12:13.622Z,39.08
2018-03-20T15:14:41.449Z,39.45
2018-03-20T15:17:09.267Z,38.04
2018-03-20T15:19:36.835Z,38.97
2018-03-20T15:22:04.483Z,37.13
2018-03-20T15:24:32.064Z,37.37
2018-03-20T15:26:59.839Z,37.60
2018-03-20T15:29:27.422Z,38.73
2018-03-20T15:31:54.977Z,38.55
2018-03-20T15:34:22.542Z,39.67
2018-03-20T15:36:50.108Z,41.25
2018-03-20T15:39:17.723Z,42.62
2018-03-20T15:41:45.321Z,43.25
2018-03-20T15:44:13.046Z,46.72
2018-03-20T15:46:40.674Z,49.36
2018-03-20T15:49:08.341Z,52.91
2018-03-20T15:51:35.903Z,56.74
2018-03-20T15:54:03.478Z,57.74
2018-03-20T15:56:31.039Z,59.71
2018-03-20T15:58:58.602Z,62.26
2018-03-20T16:01:26.177Z,64.35
2018-03-20T16:03:53.767Z,66.80
2018-03-20T16:06:21.495Z,69.57
2018-03-20T16:08:49.070Z,69.95
2018-03-20T16:11:16.863Z,71.08
2018-03-20T16:13:44.430Z,71.59
2018-03-20T16:16:11.993Z,71.57
2018-03-20T16:18:39.568Z,72.97
2018-03-20T16:21:07.316Z,74.13
2018-03-20T16:23:34.890Z,74.95
2018-03-20T16:26:02.457Z,75.76
2018-03-20T16:28:30.085Z,75.51
2018-03-20T16:30:57.651Z,75.24
2018-03-20T16:33:25.521Z,75.19
2018-03-20T16:35:53.205Z,75.76
2018-03-20T16:38:20.784Z,75.68
2018-03-20T16:40:48.567Z,75.25
2018-03-20T16:43:16.296Z,76.04
2018-03-20T16:45:44.132Z,77.46
2018-03-20T16:48:11.931Z,77.46
2018-03-20T16:50:39.498Z,77.38
2018-03-20T16:53:07.268Z,79.00
2018-03-20T16:55:34.840Z,78.50
2018-03-20T16:58:02.605Z,79.20
2018-03-20T17:00:30.208Z,78.75
2018-03-20T17:02:57.812Z,78.98
2018-03-20T17:05:25.401Z,79.39
2018-03-20T17:07:52.989Z,79.87
2018-03-20T17:10:20.794Z,79.09
2018-03-20T17:12:48.370Z,79.81
2018-03-20T17:15:16.033Z,80.67
2018-03-20T17:17:43.690Z,80.74
2018-03-20T17:20:11.267Z,80.53
2018-03-20T17:22:38.855Z,81.04
2018-03-20T17:25:06.702Z,81.42
2018-03-20T17:27:34.572Z,81.47
2018-03-20T17:30:02.157Z,80.96
2018-03-20T17:32:29.744Z,80.82
2018-03-20T17:34:57.365Z,80.50
2018-03-20T17:37:25.193Z,80.37
2018-03-20T17:39:53.025Z,81.03
2018-03-20T17:42:20.631Z,82.02
2018-03-20T17:44:48.442Z,82.54
2018-03-20T17:47:16.467Z,82.46
2018-03-20T17:49:44.291Z,82.96
2018-03-20T17:52:11.870Z,83.31
2018-03-20T17:54:39.446Z,83.27
2018-03-20T17:57:07.240Z,82.79
2018-03-20T17:59:34.838Z,82.49
2018-03-20T18:02:02.511Z,82.03
2018-03-20T18:04:30.209Z,82.40
2018-03-20T18:06:58.011Z,82.12
2018-03-20T18:09:25.831Z,82.42
2018-03-20T18:11:53.434Z,82.96
2018-03-20T18:14:21.254Z,83.19
2018-03-20T18:16:48.827Z,82.80
2018-03-20T18:19:16.506Z,83.43
2018-03-20T18:21:44.321Z,82.60
2018-03-20T18:24:11.978Z,82.98
2018-03-20T18:26:39.759Z,83.07
2018-03-20T18:29:07.566Z,82.76
2018-03-20T18:31:35.386Z,81.81
2018-03-20T18:34:03.008Z,82.19
2018-03-20T18:36:30.885Z,82.17
2018-03-20T18:38:58.488Z,82.23
2018-03-20T18:41:26.369Z,82.10
2018-03-20T18:43:54.186Z,81.88
2018-03-20T18:46:21.996Z,81.54
2018-03-20T18:48:49.577Z,82.22
2018-03-20T18:51:17.296Z,82.25
2018-03-20T18:53:45.161Z,82.46
2018-03-20T18:56:12.723Z,82.43
2018-03-20T18:58:40.495Z,82.18
2018-03-20T19:01:08.586Z,82.44
2018-03-20T19:03:36.173Z,82.37
2018-03-20T19:06:03.850Z,82.51
2018-03-20T19:08:31.491Z,82.82
2018-03-20T19:10:59.062Z,83.41
2018-03-20T19:13:26.630Z,83.05
2018-03-20T19:15:54.219Z,82.72
2018-03-20T19:18:22.042Z,83.38
2018-03-20T19:20:49.623Z,84.28
2018-03-20T19:23:17.195Z,84.08
2018-03-20T19:25:44.818Z,83.77
2018-03-20T19:28:12.598Z,84.00
2018-03-20T19:30:40.314Z,83.79
2018-03-20T19:33:07.904Z,83.93
2018-03-20T19:35:35.481Z,83.10
2018-03-20T19:38:03.284Z,82.45
2018-03-20T19:40:30.852Z,82.85
2018-03-20T19:42:58.495Z,83.05
2018-03-20T19:45:26.238Z,83.03
2018-03-20T19:47:53.853Z,84.21
2018-03-20T19:50:21.464Z,84.65
2018-03-20T19:52:49.159Z,84.49
2018-03-20T19:55:16.888Z,84.08
2018-03-20T19:57:44.716Z,83.74
2018-03-20T20:00:12.547Z,83.17
2018-03-20T20:02:40.372Z,82.51
2018-03-20T20:05:07.950Z,82.62
2018-03-20T20:07:35.681Z,83.22
2018-03-20T20:10:03.286Z,82.81
2018-03-20T20:12:30.859Z,82.41
2018-03-20T20:14:58.440Z,83.25
2018-03-20T20:17:26.251Z,84.50
2018-03-20T20:19:53.963Z,84.78
2018-03-20T20:22:21.678Z,83.76
2018-03-20T20:24:49.318Z,82.31
2018-03-20T20:27:17.045Z,81.79
2018-03-20T20:29:44.602Z,82.25
2018-03-20T20:32:12.168Z,82.52
2018-03-20T20:34:39.783Z,82.82
2018-03-20T20:37:07.358Z,83.30
2018-03-20T20:39:35.135Z,83.10
2018-03-20T20:42:02.694Z,83.62
2018-03-20T20:44:30.471Z,84.41
2018-03-20T20:46:58.039Z,84.48
2018-03-20T20:49:25.652Z,84.76
2018-03-20T20:51:53.454Z,84.28
2018-03-20T20:54:21.244Z,84.17
2018-03-20T20:56:48.814Z,83.78
2018-03-20T20:59:16.378Z,84.05
2018-03-20T21:01:43.974Z,84.46
2018-03-20T21:04:11.542Z,84.97
2018-03-20T21:06:39.130Z,85.19
2018-03-20T21:09:06.951Z,85.37
2018-03-20T21:11:34.541Z,85.31
2018-03-20T21:14:02.101Z,85.37
2018-03-20T21:16:29.734Z,85.25
2018-03-20T21:18:57.523Z,85.19
2018-03-20T21:21:25.341Z,84.56
2018-03-20T21:23:52.960Z,83.57
2018-03-20T21:26:20.777Z,83.76
2018-03-20T21:28:48.466Z,84.78
2018-03-20T21:31:16.053Z,85.31
2018-03-20T21:33:43.618Z,85.45
2018-03-20T21:36:11.314Z,84.81
2018-03-20T21:38:39.168Z,84.85
2018-03-20T21:41:06.766Z,85.01
2018-03-20T21:43:34.507Z,85.43
2018-03-20T21:46:02.078Z,86.02
2018-03-20T21:48:29.755Z,86.06
2018-03-20T21:50:57.471Z,85.87
2018-03-20T21:53:25.066Z,85.48
2018-03-20T21:55:52.938Z,85.23
2018-03-20T21:58:20.691Z,85.21
2018-03-20T22:00:48.280Z,85.38
2018-03-20T22:03:15.878Z,85.52
2018-03-20T22:05:43.443Z,85.96
2018-03-20T22:08:11.177Z,86.27
2018-03-20T22:10:38.753Z,86.37
2018-03-20T22:13:06.622Z,86.47
2018-03-20T22:15:34.230Z,86.78
2018-03-20T22:18:01.850Z,86.59
2018-03-20T22:20:29.434Z,86.48
2018-03-20T22:22:56.997Z,86.29
2018-03-20T22:25:24.578Z,86.54
2018-03-20T22:27:52.169Z,86.64
2018-03-20T22:30:19.826Z,86.91
2018-03-20T22:32:47.543Z,86.86
2018-03-20T22:35:15.390Z,86.13
2018-03-20T22:37:42.958Z,86.05
2018-03-20T22:40:10.599Z,86.13
2018-03-20T22:42:38.439Z,86.04
2018-03-20T22:45:06.284Z,86.26
2018-03-20T22:47:34.074Z,86.80
2018-03-20T22:50:01.893Z,87.07
2018-03-20T22:52:29.519Z,87.20
2018-03-20T22:54:57.114Z,86.70
2018-03-20T22:57:24.675Z,86.70
2018-03-20T22:59:52.464Z,87.12
2018-03-20T23:02:20.046Z,87.42
2018-03-20T23:04:47.622Z,87.79
2018-03-20T23:07:15.198Z,88.02
2018-03-20T23:09:42.928Z,88.19
2018-03-20T23:12:10.518Z,88.20
2018-03-20T23:14:38.081Z,88.35
2018-03-20T23:17:05.685Z,88.40
2018-03-20T23:19:33.299Z,88.48
2018-03-20T23:22:01.126Z,88.31
2018-03-20T23:24:28.723Z,88.23
2018-03-20T23:26:56.342Z,87.85
2018-03-20T23:29:23.931Z,87.70
2018-03-20T23:31:51.580Z,88.08
2018-03-20T23:34:19.154Z,88.64
2018-03-20T23:36:46.982Z,88.48
2018-03-20T23:39:14.557Z,88.43
2018-03-20T23:41:42.130Z,88.49
2018-03-20T23:44:09.699Z,88.45
2018-03-20T23:46:37.274Z,88.53
2018-03-20T23:49:05.015Z,88.56
2018-03-20T23:51:32.588Z,88.77
2018-03-20T23:54:00.321Z,88.67
2018-03-20T23:56:28.077Z,88.41
2018-03-20T23:58:55.635Z,88.47
